Time;durP1;ratioP1;P1;durP2;ratioP2;P2;SDS_P1;SDS_P2;PMS_P1;PMS_P2;Temp;Humidity;BMP_temperature;BMP_pressure;BME280_temperature;BME280_humidity;BME280_pressure;Samples;Min_cycle;Max_cycle;Signal;HPM_P1;HPM_P2
2023/08/03 00:00:23;;;;;;;9.50;6.28;;;;;;;22.68;60.41;93528.63;5065437;28;20326;-81
2023/08/03 00:02:49;;;;;;;9.38;5.82;;;;;;;22.68;60.70;93520.50;5064814;28;20021;-79
2023/08/03 00:05:19;;;;;;;9.98;6.00;;;;;;;22.62;61.33;93526.34;5065126;28;20020;-78
2023/08/03 00:07:46;;;;;;;9.23;6.07;;;;;;;22.63;61.19;93530.59;5065134;28;20033;-78
2023/08/03 00:10:11;;;;;;;8.65;6.15;;;;;;;22.61;61.34;93529.44;5064092;28;20037;-77
2023/08/03 00:12:37;;;;;;;9.45;6.07;;;;;;;22.55;60.76;93534.53;5065172;28;20219;-77
2023/08/03 00:15:03;;;;;;;10.93;7.97;;;;;;;22.46;61.33;93528.00;5064498;28;20377;-76
2023/08/03 00:17:28;;;;;;;9.93;6.82;;;;;;;22.50;61.32;93540.38;5064697;28;20139;-76
2023/08/03 00:19:53;;;;;;;9.90;6.47;;;;;;;22.48;61.24;93528.38;5064957;28;20071;-77
2023/08/03 00:22:19;;;;;;;10.85;6.43;;;;;;;22.36;60.98;93529.59;5064624;28;20028;-77
2023/08/03 00:24:44;;;;;;;9.15;6.57;;;;;;;22.33;61.38;93520.31;5064560;28;20021;-76
2023/08/03 00:27:10;;;;;;;10.63;6.70;;;;;;;22.38;61.63;93519.88;5064908;28;20029;-77
2023/08/03 00:29:35;;;;;;;8.95;6.40;;;;;;;22.38;61.69;93519.09;5064514;28;20315;-77
2023/08/03 00:32:01;;;;;;;11.73;6.00;;;;;;;22.32;62.01;93517.97;5064322;28;20020;-77
2023/08/03 00:34:30;;;;;;;13.82;6.68;;;;;;;22.27;62.47;93515.66;5064457;28;20024;-77
2023/08/03 00:36:55;;;;;;;8.98;6.68;;;;;;;22.21;62.50;93518.78;5064077;28;20029;-77
2023/08/03 00:39:21;;;;;;;10.18;7.15;;;;;;;22.14;62.74;93523.44;5064499;28;20044;-77
2023/08/03 00:41:46;;;;;;;10.60;6.47;;;;;;;22.11;62.92;93525.03;5064449;28;20021;-77
2023/08/03 00:44:12;;;;;;;10.65;6.78;;;;;;;22.13;62.68;93527.34;5063460;28;20029;-77
2023/08/03 00:46:37;;;;;;;8.60;6.05;;;;;;;22.11;62.91;93514.16;5063794;28;20024;-77
2023/08/03 00:49:03;;;;;;;13.95;6.65;;;;;;;22.13;62.74;93525.41;5063990;28;20053;-77
2023/08/03 00:51:28;;;;;;;11.60;6.53;;;;;;;22.08;62.75;93523.09;5064250;28;20219;-76
2023/08/03 00:53:55;;;;;;;13.25;7.80;;;;;;;22.00;63.39;93527.78;5063703;28;20051;-76
2023/08/03 00:56:21;;;;;;;9.70;5.95;;;;;;;22.03;62.93;93524.28;5062863;28;20075;-76
2023/08/03 00:58:46;;;;;;;9.75;6.15;;;;;;;22.03;62.97;93523.50;5061623;28;20021;-76
2023/08/03 01:01:11;;;;;;;11.70;6.57;;;;;;;21.99;63.11;93522.75;5063110;28;20025;-76
2023/08/03 01:03:37;;;;;;;11.73;7.13;;;;;;;21.98;63.59;93521.19;5062742;28;20013;-78
2023/08/03 01:06:02;;;;;;;10.82;6.65;;;;;;;21.94;63.73;93523.94;5062720;28;20091;-77
2023/08/03 01:08:28;;;;;;;9.82;6.75;;;;;;;21.86;63.76;93525.13;5063954;28;20036;-78
2023/08/03 01:10:54;;;;;;;10.85;7.55;;;;;;;21.77;64.28;93522.03;5063812;28;20024;-78
2023/08/03 01:13:21;;;;;;;9.93;6.53;;;;;;;21.79;64.29;93515.06;5063526;28;20200;-79
2023/08/03 01:15:46;;;;;;;10.50;6.90;;;;;;;21.72;64.59;93517.81;5063381;28;20059;-78
2023/08/03 01:18:12;;;;;;;8.75;6.65;;;;;;;21.71;64.79;93518.94;5063712;28;20323;-77
2023/08/03 01:20:40;;;;;;;10.45;7.65;;;;;;;21.70;64.41;93522.84;5063335;28;20032;-76
2023/08/03 01:23:06;;;;;;;10.07;8.02;;;;;;;21.68;64.47;93524.41;5063188;28;20044;-77
2023/08/03 01:25:32;;;;;;;10.45;7.07;;;;;;;21.64;65.15;93529.84;5062020;28;20021;-77
2023/08/03 01:27:58;;;;;;;9.73;7.13;;;;;;;21.68;64.90;93518.97;5063312;28;20311;-77
2023/08/03 01:30:23;;;;;;;8.60;6.50;;;;;;;21.67;65.01;93517.41;5063487;28;20025;-77
2023/08/03 01:32:49;;;;;;;9.32;7.07;;;;;;;21.64;64.92;93516.28;5063397;28;20021;-77
2023/08/03 01:35:15;;;;;;;10.48;6.90;;;;;;;21.58;65.07;93520.56;5063356;28;20049;-78
2023/08/03 01:37:40;;;;;;;9.18;6.72;;;;;;;21.61;65.13;93525.19;5063556;28;20052;-79
2023/08/03 01:40:06;;;;;;;20.30;7.85;;;;;;;21.63;65.08;93517.44;5063003;28;20024;-78
2023/08/03 01:42:32;;;;;;;8.60;6.53;;;;;;;21.66;64.95;93522.06;5063175;28;20020;-78
2023/08/03 01:44:58;;;;;;;10.85;7.22;;;;;;;21.66;65.07;93522.06;5062107;28;20150;-79
2023/08/03 01:47:23;;;;;;;12.48;7.32;;;;;;;21.60;65.14;93519.00;5062929;28;20021;-79
2023/08/03 01:49:49;;;;;;;9.07;6.93;;;;;;;21.50;65.74;93522.50;5062864;28;20354;-78
2023/08/03 01:52:14;;;;;;;11.85;7.50;;;;;;;21.49;65.78;93525.59;5063043;28;20029;-78
2023/08/03 01:54:40;;;;;;;13.48;8.02;;;;;;;21.44;66.22;93516.69;5062898;28;20025;-78
2023/08/03 01:57:05;;;;;;;10.13;7.63;;;;;;;21.36;66.00;93515.13;5062772;28;20323;-78
2023/08/03 01:59:31;;;;;;;10.07;7.28;;;;;;;21.40;66.30;93524.03;5062896;28;20074;-78
2023/08/03 02:01:56;;;;;;;10.90;7.03;;;;;;;21.46;66.39;93523.69;5062744;28;20097;-79
2023/08/03 02:04:22;;;;;;;11.90;8.00;;;;;;;21.49;66.35;93526.34;5062971;28;20032;-79
2023/08/03 02:06:53;;;;;;;10.55;7.00;;;;;;;21.50;66.66;93538.00;5062958;28;20039;-79
2023/08/03 02:09:19;;;;;;;12.65;7.28;;;;;;;21.40;66.20;93529.44;5062234;28;20040;-80
2023/08/03 02:11:45;;;;;;;9.82;7.75;;;;;;;21.35;66.25;93529.06;5062576;28;20017;-80
2023/08/03 02:14:11;;;;;;;12.73;8.02;;;;;;;21.39;66.15;93530.63;5062873;28;20051;-79
2023/08/03 02:16:36;;;;;;;10.63;7.43;;;;;;;21.42;66.46;93531.78;5062697;28;20322;-79
2023/08/03 02:19:01;;;;;;;11.63;7.43;;;;;;;21.40;65.39;93532.16;5062649;28;20025;-79
2023/08/03 02:21:27;;;;;;;14.27;8.05;;;;;;;21.36;65.83;93531.38;5062629;28;20036;-79
2023/08/03 02:23:53;;;;;;;12.82;7.82;;;;;;;21.31;66.33;93525.59;5062365;28;20037;-79
2023/08/03 02:26:19;;;;;;;10.07;7.60;;;;;;;21.28;66.63;93527.16;5062798;28;20093;-80
2023/08/03 02:28:44;;;;;;;11.13;7.90;;;;;;;21.27;66.99;93522.91;5062610;28;20025;-80
2023/08/03 02:31:10;;;;;;;12.73;7.70;;;;;;;21.18;67.33;93519.78;5062747;28;20029;-80
2023/08/03 02:33:35;;;;;;;12.07;7.32;;;;;;;21.20;66.91;93533.72;5061259;28;20040;-80
2023/08/03 02:36:00;;;;;;;10.80;7.07;;;;;;;21.23;65.72;93527.56;5062760;28;20037;-80
2023/08/03 02:38:26;;;;;;;11.38;7.03;;;;;;;21.20;65.98;93536.44;5062447;28;20041;-79
2023/08/03 02:40:52;;;;;;;12.95;7.32;;;;;;;21.20;66.20;93534.50;5062320;28;20025;-79
2023/08/03 02:43:18;;;;;;;13.05;7.95;;;;;;;21.26;66.10;93532.19;5062206;28;20025;-78
2023/08/03 02:45:43;;;;;;;15.00;7.75;;;;;;;21.21;66.13;93532.59;5062619;28;20013;-77
2023/08/03 02:48:08;;;;;;;10.52;7.68;;;;;;;21.09;66.98;93524.84;5062049;28;20109;-77
2023/08/03 02:50:34;;;;;;;11.43;7.82;;;;;;;21.10;66.94;93529.84;5062382;28;20028;-77
2023/08/03 02:52:59;;;;;;;14.43;7.90;;;;;;;21.14;66.82;93527.16;5062546;28;20021;-78
2023/08/03 02:55:25;;;;;;;24.00;8.50;;;;;;;21.13;66.88;93537.22;5062258;28;20342;-78
2023/08/03 02:57:50;;;;;;;14.15;8.00;;;;;;;21.08;67.44;93526.75;5062057;28;20017;-78
2023/08/03 03:00:16;;;;;;;10.80;7.78;;;;;;;21.11;67.66;93534.13;5062228;28;20024;-78
2023/08/03 03:02:42;;;;;;;12.32;8.10;;;;;;;21.07;67.48;93540.72;5062543;28;20264;-78
2023/08/03 03:05:07;;;;;;;22.95;7.68;;;;;;;21.09;68.15;93544.59;5062113;28;20012;-79
2023/08/03 03:07:33;;;;;;;10.18;8.10;;;;;;;21.07;67.75;93535.31;5062187;28;20021;-78
2023/08/03 03:09:59;;;;;;;11.65;8.07;;;;;;;21.03;67.57;93535.28;5062144;28;20067;-79
2023/08/03 03:12:24;;;;;;;10.13;8.30;;;;;;;21.06;67.81;93542.63;5062392;28;20043;-79
2023/08/03 03:14:50;;;;;;;12.85;7.22;;;;;;;21.01;67.66;93541.09;5062050;28;20091;-76
2023/08/03 03:17:15;;;;;;;15.73;9.63;;;;;;;20.95;68.25;93545.34;5062025;28;20024;-76
2023/08/03 03:19:41;;;;;;;18.48;8.70;;;;;;;20.96;68.33;93552.31;5060913;28;20025;-75
2023/08/03 03:22:07;;;;;;;13.38;8.05;;;;;;;20.90;68.66;93548.44;5063133;28;20097;-76
2023/08/03 03:24:33;;;;;;;14.43;8.45;;;;;;;20.91;69.01;93560.06;5065895;28;20341;-75
2023/08/03 03:26:58;;;;;;;15.18;9.30;;;;;;;20.85;69.19;93565.06;5065695;28;20025;-76
2023/08/03 03:29:24;;;;;;;13.75;8.77;;;;;;;20.80;69.22;93565.44;5065828;28;20025;-76
2023/08/03 03:31:49;;;;;;;16.88;8.88;;;;;;;20.75;69.49;93565.84;5065467;28;20384;-76
2023/08/03 03:34:14;;;;;;;14.68;9.20;;;;;;;20.76;69.26;93564.66;5065356;28;20123;-76
2023/08/03 03:36:40;;;;;;;16.95;8.30;;;;;;;20.76;69.65;93564.66;5065753;28;20063;-78
2023/08/03 03:39:05;;;;;;;11.45;8.77;;;;;;;20.74;69.74;93565.06;5065556;28;20040;-79
2023/08/03 03:41:31;;;;;;;13.52;8.90;;;;;;;20.73;70.40;93560.03;5065582;28;20032;-78
2023/08/03 03:43:56;;;;;;;13.65;8.68;;;;;;;20.73;70.16;93560.03;5065494;28;20196;-79
2023/08/03 03:46:22;;;;;;;19.05;8.70;;;;;;;20.71;70.31;93562.34;5065371;28;20258;-80
2023/08/03 03:48:47;;;;;;;14.82;8.65;;;;;;;20.70;70.56;93566.19;5065213;28;20399;-80
2023/08/03 03:51:14;;;;;;;15.38;9.82;;;;;;;20.75;70.64;93563.91;5065483;28;20028;-85
2023/08/03 03:53:39;;;;;;;15.98;8.80;;;;;;;20.76;70.44;93564.66;5065498;28;20012;-76
2023/08/03 03:56:05;;;;;;;14.52;9.80;;;;;;;20.69;71.00;93575.50;5063672;28;20036;-76
2023/08/03 03:58:30;;;;;;;16.30;9.85;;;;;;;20.70;71.45;93566.19;5065113;28;20041;-74
2023/08/03 04:00:55;;;;;;;14.75;10.05;;;;;;;20.79;71.42;93575.50;5064811;28;20032;-77
2023/08/03 04:03:23;;;;;;;16.52;10.38;;;;;;;20.90;70.96;93570.09;5065120;28;20040;-77
2023/08/03 04:05:49;;;;;;;12.38;9.30;;;;;;;20.92;70.77;93569.72;5065063;28;20200;-76
2023/08/03 04:08:15;;;;;;;17.83;9.25;;;;;;;20.97;70.87;93574.78;5065311;28;20029;-77
2023/08/03 04:10:40;;;;;;;13.95;8.57;;;;;;;20.98;71.37;93570.88;5064966;28;20017;-76
2023/08/03 04:13:06;;;;;;;15.40;9.65;;;;;;;21.02;70.90;93564.34;5064914;28;20036;-75
2023/08/03 04:15:31;;;;;;;16.75;10.32;;;;;;;20.98;71.27;93571.66;5064777;28;20044;-74
2023/08/03 04:17:56;;;;;;;15.20;9.75;;;;;;;21.06;70.86;93564.31;5064756;28;20025;-75
2023/08/03 04:20:22;;;;;;;19.13;10.30;;;;;;;21.17;70.85;93567.03;5064502;28;20025;-82
2023/08/03 04:22:47;;;;;;;17.08;10.25;;;;;;;21.24;70.23;93577.88;5064560;28;20096;-81
2023/08/03 04:25:13;;;;;;;13.82;9.23;;;;;;;21.26;69.67;93575.53;5063672;28;20096;-82
2023/08/03 04:27:38;;;;;;;34.70;10.60;;;;;;;21.33;69.39;93580.19;5064765;28;20027;-83
2023/08/03 04:30:04;;;;;;;15.00;10.43;;;;;;;21.35;68.96;93578.66;5064635;28;20016;-82
2023/08/03 04:32:30;;;;;;;19.05;9.32;;;;;;;21.45;68.72;93582.53;5062547;28;20032;-82
2023/08/03 04:34:55;;;;;;;17.05;10.38;;;;;;;21.53;69.01;93594.91;5061208;28;20052;-82
2023/08/03 04:37:21;;;;;;;15.85;9.23;;;;;;;21.58;69.11;93591.06;5062915;28;20230;-82
2023/08/03 04:39:47;;;;;;;17.85;9.85;;;;;;;21.67;68.35;93588.69;5062606;28;20023;-82
2023/08/03 04:42:12;;;;;;;19.15;10.52;;;;;;;21.73;67.84;93594.50;5062928;28;20028;-82
2023/08/03 04:44:37;;;;;;;16.05;10.35;;;;;;;21.73;67.95;93589.84;5061759;28;20029;-82
2023/08/03 04:47:03;;;;;;;16.70;11.02;;;;;;;;;;5061986;28;20223;-82
2023/08/03 04:49:28;;;;;;;14.18;10.57;;;;;;;21.91;67.28;93591.78;5064095;28;20094;-82
2023/08/03 04:51:54;;;;;;;14.90;10.57;;;;;;;21.98;66.98;93603.38;5063824;28;20029;-82
2023/08/03 04:54:20;;;;;;;23.48;11.15;;;;;;;22.03;67.23;93604.91;5064303;28;20104;-82
2023/08/03 04:56:46;;;;;;;14.32;9.60;;;;;;;22.09;66.78;93597.91;5064255;28;20036;-82
2023/08/03 04:59:11;;;;;;;15.32;9.93;;;;;;;22.18;67.04;93600.97;5063886;28;20048;-82
2023/08/03 05:01:36;;;;;;;19.52;10.10;;;;;;;22.20;66.55;93604.06;5063697;28;20024;-82
2023/08/03 05:04:02;;;;;;;20.17;11.10;;;;;;;22.23;66.58;93599.81;5064134;28;20094;-82
2023/08/03 05:06:28;;;;;;;24.33;11.63;;;;;;;22.30;66.12;93613.38;5063859;28;20021;-82
2023/08/03 05:08:53;;;;;;;20.27;10.82;;;;;;;22.29;66.30;93611.06;5063790;28;20323;-82
2023/08/03 05:23:15;;;;;;;17.58;11.25;;;;;;;23.30;61.34;93614.03;5120710;27;20391;-76
2023/08/03 05:25:40;;;;;;;22.40;11.68;;;;;;;23.22;62.09;93616.03;5120763;28;20027;-75
2023/08/03 05:28:06;;;;;;;23.73;11.52;;;;;;;23.14;62.50;93626.19;5120639;28;20251;-76
2023/08/03 05:30:31;;;;;;;22.50;11.80;;;;;;;23.11;62.65;93618.06;5120648;28;20027;-76
2023/08/03 05:32:57;;;;;;;22.58;12.18;;;;;;;23.07;62.75;93622.75;5120417;28;20032;-76
2023/08/03 05:35:23;;;;;;;17.17;10.35;;;;;;;23.03;63.11;93622.75;5120391;28;20233;-76
2023/08/03 05:37:52;;;;;;;18.20;11.63;;;;;;;22.98;63.66;93629.38;5120354;28;20038;-76
2023/08/03 05:40:18;;;;;;;23.42;12.30;;;;;;;23.00;63.98;93627.03;5120406;28;20032;-76
2023/08/03 05:42:43;;;;;;;17.73;11.52;;;;;;;23.07;63.68;93617.31;5120404;28;20162;-76
2023/08/03 05:45:32;;;;;;;22.58;11.73;;;;;;;23.12;63.54;93622.31;5120110;28;20060;-76
2023/08/03 05:47:58;;;;;;;23.02;11.75;;;;;;;23.11;63.23;93621.53;5120234;28;20321;-76
2023/08/03 05:50:24;;;;;;;29.45;12.10;;;;;;;23.12;63.59;93625.03;5120168;28;20275;-76
2023/08/03 05:52:50;;;;;;;23.85;10.75;;;;;;;23.17;63.30;93624.63;5120221;28;20027;-76
2023/08/03 05:55:16;;;;;;;18.88;11.15;;;;;;;23.25;62.89;93631.56;5120200;28;20217;-76
2023/08/03 06:11:30;;;;;;;19.20;11.00;;;;;;;24.61;57.21;93638.47;5059911;28;20397;-76
2023/08/03 06:13:59;;;;;;;27.58;10.57;;;;;;;24.49;57.63;93636.25;5059991;28;20021;-76
2023/08/03 06:16:25;;;;;;;17.95;10.73;;;;;;;24.35;58.09;93641.88;5059902;28;20017;-76
2023/08/03 06:18:53;;;;;;;20.27;10.52;;;;;;;24.35;57.74;93639.16;5059755;28;20075;-76
2023/08/03 06:21:19;;;;;;;23.65;10.15;;;;;;;24.39;57.84;93643.38;5059647;28;20041;-76
2023/08/03 06:23:46;;;;;;;16.67;10.05;;;;;;;24.39;58.31;93637.16;5059926;28;20366;-76
2023/08/03 06:26:14;;;;;;;15.15;9.93;;;;;;;24.41;57.32;93648.41;5059740;28;20028;-76
2023/08/03 06:28:40;;;;;;;18.55;10.07;;;;;;;24.43;57.58;93644.09;5058619;28;20029;-76
2023/08/03 06:31:22;;;;;;;16.30;9.48;;;;;;;24.48;57.89;93642.88;5059815;28;20191;-76
2023/08/03 06:33:48;;;;;;;17.70;9.80;;;;;;;24.51;57.43;93642.09;5059602;28;20032;-76
2023/08/03 06:36:19;;;;;;;24.63;10.32;;;;;;;24.52;57.53;93640.91;5059713;28;20029;-76
2023/08/03 06:38:45;;;;;;;22.23;10.23;;;;;;;24.61;57.79;93648.59;5059523;28;20075;-76
2023/08/03 06:41:11;;;;;;;26.73;11.23;;;;;;;24.67;57.45;93655.16;5059372;28;20029;-76
2023/08/03 06:43:37;;;;;;;25.15;11.20;;;;;;;24.71;56.91;93647.69;5059513;28;20032;-76
2023/08/03 06:46:02;;;;;;;22.27;11.48;;;;;;;24.76;56.81;93652.69;5059367;28;20033;-76
2023/08/03 06:48:28;;;;;;;17.48;10.60;;;;;;;24.79;56.44;93645.63;5059142;28;20356;-76
2023/08/03 06:50:54;;;;;;;19.10;10.50;;;;;;;24.82;56.32;93650.28;5059228;28;20021;-76
2023/08/03 06:53:21;;;;;;;21.10;11.82;;;;;;;24.96;56.10;93652.81;5059340;28;20033;-76
2023/08/03 06:55:48;;;;;;;15.35;10.20;;;;;;;25.00;56.51;93660.97;5059099;28;20052;-76
2023/08/03 06:58:14;;;;;;;18.58;10.15;;;;;;;25.12;56.41;93651.47;5059332;28;20084;-76
2023/08/03 07:00:41;;;;;;;18.05;9.73;;;;;;;25.27;55.71;93644.63;5058814;28;20014;-76
2023/08/03 07:03:07;;;;;;;19.92;10.38;;;;;;;25.28;54.68;93642.66;5059125;28;20037;-76
2023/08/03 07:05:33;;;;;;;15.60;10.93;;;;;;;25.31;53.92;93642.63;5059098;28;20028;-76
2023/08/03 07:07:58;;;;;;;20.55;9.52;;;;;;;25.42;54.23;93631.53;5058791;28;20021;-76
2023/08/03 07:10:24;;;;;;;16.92;9.13;;;;;;;25.54;54.35;93643.84;5056777;28;20136;-76
2023/08/03 07:12:49;;;;;;;21.20;10.27;;;;;;;25.65;54.16;93633.53;5045439;28;20060;-76
2023/08/03 07:15:15;;;;;;;16.52;9.80;;;;;;;25.73;53.30;93636.94;5045743;28;20071;-76
2023/08/03 07:17:40;;;;;;;22.17;9.55;;;;;;;25.72;52.85;93638.88;5045453;28;20017;-76
2023/08/03 07:20:08;;;;;;;15.65;9.13;;;;;;;25.79;52.90;93646.94;5045313;28;20127;-76
2023/08/03 07:22:35;;;;;;;16.77;9.55;;;;;;;25.72;53.31;93644.31;5045465;28;20029;-76
2023/08/03 07:25:00;;;;;;;14.75;8.82;;;;;;;25.67;52.46;93641.31;5045311;28;20088;-76
2023/08/03 07:27:26;;;;;;;11.93;9.50;;;;;;;25.81;52.23;93644.56;5045210;28;20022;-76
2023/08/03 07:29:51;;;;;;;11.82;9.35;;;;;;;25.90;51.47;93641.31;5045247;28;20063;-76
2023/08/03 07:32:17;;;;;;;17.27;9.52;;;;;;;25.89;52.01;93633.50;5045171;28;20022;-76
2023/08/03 07:34:43;;;;;;;15.70;10.55;;;;;;;25.97;52.13;93638.50;5045441;28;20028;-76
2023/08/03 07:37:09;;;;;;;25.90;9.48;;;;;;;26.14;51.91;93638.59;5044917;28;20048;-76
2023/08/03 07:39:34;;;;;;;16.00;9.10;;;;;;;26.26;51.81;93639.94;5045100;28;20311;-77
2023/08/03 07:42:00;;;;;;;15.73;9.20;;;;;;;26.40;51.36;93632.22;5045060;28;20025;-76
2023/08/03 07:44:26;;;;;;;19.48;8.45;;;;;;;26.55;51.45;93631.94;5044852;28;20311;-76
2023/08/03 07:46:51;;;;;;;14.57;8.43;;;;;;;26.69;50.86;93631.69;5044892;28;20048;-76
2023/08/03 07:49:16;;;;;;;10.38;7.63;;;;;;;26.82;50.83;93634.56;5045068;28;20086;-76
2023/08/03 07:51:43;;;;;;;17.55;9.07;;;;;;;26.95;49.03;93629.97;5044890;28;20021;-76
2023/08/03 07:54:09;;;;;;;20.73;9.77;;;;;;;26.99;48.86;93632.66;5044892;28;20318;-76
2023/08/03 07:56:34;;;;;;;18.35;8.25;;;;;;;27.01;49.93;93631.03;5044744;28;20021;-76
2023/08/03 07:59:00;;;;;;;11.65;8.70;;;;;;;26.96;48.80;93628.78;5044664;28;20025;-75
2023/08/03 08:01:26;;;;;;;14.85;9.48;;;;;;;26.85;49.33;93627.47;5044301;28;20029;-72
2023/08/03 08:03:51;;;;;;;11.90;8.70;;;;;;;26.86;48.53;93629.00;5043850;28;20261;-74
2023/08/03 08:06:19;;;;;;;13.02;9.38;;;;;;;26.88;48.08;93629.34;5043841;28;20319;-73
2023/08/03 08:08:46;;;;;;;14.10;8.77;;;;;;;26.89;48.21;93628.94;5044641;28;20203;-73
2023/08/03 08:11:13;;;;;;;16.58;8.68;;;;;;;26.89;48.69;93628.94;5044283;28;20045;-72
2023/08/03 08:13:39;;;;;;;13.57;8.75;;;;;;;26.93;48.50;93628.88;5044327;28;20029;-72
2023/08/03 08:16:07;;;;;;;11.40;9.07;;;;;;;27.02;48.05;93627.09;5044223;28;20032;-73
2023/08/03 08:18:33;;;;;;;11.45;8.52;;;;;;;27.11;47.91;93623.78;5044277;28;20025;-73
2023/08/03 08:21:07;;;;;;;17.95;9.02;;;;;;;27.17;48.37;93633.03;5044029;28;20021;-73
2023/08/03 08:23:33;;;;;;;16.63;8.93;;;;;;;27.28;48.37;93621.88;5043099;28;20029;-73
2023/08/03 08:25:59;;;;;;;18.52;9.20;;;;;;;27.39;47.54;93618.88;5043993;28;20033;-74
2023/08/03 08:28:25;;;;;;;18.27;8.40;;;;;;;27.49;47.52;93615.13;5044075;28;20184;-74
2023/08/03 08:30:51;;;;;;;15.02;8.13;;;;;;;27.50;47.15;93624.09;5044115;28;20025;-74
2023/08/03 08:33:18;;;;;;;20.13;9.20;;;;;;;27.60;46.69;93614.88;5044233;28;20092;-74
2023/08/03 08:35:45;;;;;;;18.42;9.38;;;;;;;27.67;46.63;93617.44;5044159;28;20032;-73
2023/08/03 08:38:11;;;;;;;24.27;9.32;;;;;;;27.72;46.12;93613.41;5043965;28;20036;-74
2023/08/03 08:40:37;;;;;;;22.55;8.65;;;;;;;27.80;45.93;93615.53;5043832;28;20025;-75
2023/08/03 08:43:03;;;;;;;22.70;9.05;;;;;;;27.85;45.49;93608.78;5043910;28;20029;-74
2023/08/03 08:45:36;;;;;;;15.45;9.05;;;;;;;27.90;45.79;93611.00;5043727;28;20326;-74
2023/08/03 08:48:02;;;;;;;14.00;9.25;;;;;;;27.96;45.21;93606.53;5043633;28;20044;-74
2023/08/03 08:50:28;;;;;;;14.23;8.75;;;;;;;28.05;45.89;93611.44;5043633;28;20059;-73
2023/08/03 08:52:55;;;;;;;17.15;8.57;;;;;;;28.21;46.04;93602.38;5043657;28;20200;-74
2023/08/03 08:55:29;;;;;;;19.88;8.80;;;;;;;28.41;45.08;93599.50;5043550;28;20024;-74
2023/08/03 08:57:56;;;;;;;13.95;8.95;;;;;;;28.39;44.97;93607.38;5043371;28;20028;-74
2023/08/03 09:00:25;;;;;;;17.75;8.73;;;;;;;28.45;44.61;93600.16;5043214;28;20219;-75
2023/08/03 09:03:01;;;;;;;15.40;9.45;;;;;;;28.63;44.22;93599.69;5043273;28;20092;-74
2023/08/03 09:05:27;;;;;;;12.80;8.48;;;;;;;28.79;44.25;93596.09;5042169;28;20025;-77
2023/08/03 09:08:07;;;;;;;14.25;9.25;;;;;;;28.98;44.30;93603.38;5042093;28;20021;-76
2023/08/03 09:10:47;;;;;;;15.95;8.57;;;;;;;29.20;43.98;93597.25;5042649;28;20096;-76
2023/08/03 09:13:34;;;;;;;15.57;9.45;;;;;;;29.19;43.31;93593.00;5041579;28;20148;-77
2023/08/03 09:16:00;;;;;;;12.07;8.95;;;;;;;29.04;43.28;93589.88;5041455;28;20044;-77
2023/08/03 09:18:27;;;;;;;14.82;9.32;;;;;;;29.05;43.07;93590.66;5042558;28;20320;-77
2023/08/03 09:21:11;;;;;;;13.32;8.90;;;;;;;29.13;43.14;93592.00;5042548;28;20104;-78
2023/08/03 09:23:37;;;;;;;16.48;8.57;;;;;;;29.20;42.89;93598.03;5042967;28;20036;-77
2023/08/03 09:26:03;;;;;;;18.65;9.20;;;;;;;29.32;43.35;93593.75;5042954;28;20029;-76
2023/08/03 09:28:36;;;;;;;19.65;10.00;;;;;;;29.44;43.03;93592.19;5043173;28;20100;-77
2023/08/03 09:31:02;;;;;;;14.05;9.75;;;;;;;29.54;43.27;93582.09;5043005;28;20100;-77
2023/08/03 09:33:27;;;;;;;14.73;10.40;;;;;;;29.50;42.62;93586.94;5042981;28;20029;-77
2023/08/03 09:36:05;;;;;;;14.75;9.73;;;;;;;29.38;42.38;93586.50;5042911;28;20032;-77
2023/08/03 09:38:30;;;;;;;16.10;9.25;;;;;;;29.56;43.31;93579.69;5042935;28;20053;-77
2023/08/03 09:40:58;;;;;;;22.35;11.05;;;;;;;29.77;43.52;93578.97;5042878;28;20029;-76
2023/08/03 09:43:24;;;;;;;15.45;9.55;;;;;;;29.90;41.92;93573.47;5042653;28;20029;-77
2023/08/03 09:45:51;;;;;;;17.55;10.32;;;;;;;29.85;41.31;93570.50;5042845;28;20330;-77
2023/08/03 09:48:18;;;;;;;17.83;9.20;;;;;;;29.83;41.95;93564.69;5042874;28;20025;-77
2023/08/03 09:50:50;;;;;;;18.00;9.35;;;;;;;29.99;42.32;93567.28;5042861;28;20017;-77
2023/08/03 09:53:19;;;;;;;16.67;9.80;;;;;;;30.17;42.72;93567.44;5041668;28;20021;-77
2023/08/03 09:56:01;;;;;;;18.27;9.98;;;;;;;30.27;42.28;93564.75;5042711;28;20030;-77
2023/08/03 09:58:35;;;;;;;18.85;9.85;;;;;;;30.36;41.44;93562.84;5042831;28;20033;-77
2023/08/03 10:01:03;;;;;;;16.77;9.95;;;;;;;30.43;40.68;93567.34;5042795;28;20017;-77
2023/08/03 10:03:31;;;;;;;16.75;9.90;;;;;;;30.54;40.50;93562.22;5042466;28;20029;-78
2023/08/03 10:06:09;;;;;;;19.92;9.15;;;;;;;30.70;40.91;93560.47;5042618;28;20075;-77
2023/08/03 10:08:53;;;;;;;15.90;9.75;;;;;;;30.93;40.65;93562.75;5042441;28;20025;-76
2023/08/03 10:11:22;;;;;;;17.20;9.55;;;;;;;31.12;40.88;93554.56;5042575;28;20038;-76
2023/08/03 10:13:50;;;;;;;14.63;8.77;;;;;;;31.23;40.29;93545.91;5042701;28;20036;-77
2023/08/03 10:16:17;;;;;;;13.75;9.02;;;;;;;31.37;40.16;93542.59;5042329;28;20097;-77
2023/08/03 10:18:45;;;;;;;16.90;8.93;;;;;;;31.48;38.92;93539.41;5041401;28;20040;-78
2023/08/03 10:21:11;;;;;;;13.65;8.68;;;;;;;31.33;39.11;93537.22;5042549;28;20132;-78
2023/08/03 10:23:39;;;;;;;12.20;8.98;;;;;;;31.35;39.23;93540.28;5042560;28;20287;-77
2023/08/03 10:26:06;;;;;;;11.98;8.40;;;;;;;31.52;38.90;93534.53;5041393;28;20277;-77
2023/08/03 10:28:41;;;;;;;18.10;9.27;;;;;;;31.55;38.85;93525.38;5041069;28;20028;-77
2023/08/03 10:31:19;;;;;;;13.27;9.50;;;;;;;31.70;39.12;93528.28;5042435;28;20027;-77
2023/08/03 10:33:50;;;;;;;11.88;8.07;;;;;;;31.86;38.61;93528.00;5042436;28;20033;-75
2023/08/03 10:36:30;;;;;;;14.30;7.68;;;;;;;32.02;37.64;93526.97;5042499;28;20022;-75
2023/08/03 10:38:58;;;;;;;15.70;8.15;;;;;;;31.93;37.37;93516.66;5041068;28;20029;-75
2023/08/03 10:41:27;;;;;;;21.45;8.95;;;;;;;31.95;37.00;93518.97;5042483;28;20029;-75
2023/08/03 10:44:05;;;;;;;11.55;8.43;;;;;;;31.81;37.48;93509.31;5042175;28;20032;-75
2023/08/03 10:46:35;;;;;;;14.68;7.57;;;;;;;31.93;37.10;93511.16;5043767;28;20152;-76
2023/08/03 10:49:19;;;;;;;11.63;8.25;;;;;;;32.07;37.67;93509.81;5046157;28;20231;-76
2023/08/03 10:52:10;;;;;;;9.55;7.95;;;;;;;32.30;37.81;93507.63;5045854;28;20092;-77
2023/08/03 10:54:35;;;;;;;12.38;7.30;;;;;;;32.48;35.85;93507.59;5045903;28;20029;-77
2023/08/03 10:57:04;;;;;;;10.75;7.60;;;;;;;32.65;34.44;93502.53;5045576;28;20029;-78
2023/08/03 10:59:35;;;;;;;11.68;7.10;;;;;;;32.77;34.71;93500.78;5045604;28;20033;-78
2023/08/03 11:02:11;;;;;;;23.60;8.15;;;;;;;32.98;34.69;93488.75;5045794;28;20025;-78
2023/08/03 11:04:37;;;;;;;16.23;7.95;;;;;;;33.17;34.19;93488.69;5045444;28;20028;-79
2023/08/03 11:07:03;;;;;;;10.77;7.50;;;;;;;33.31;34.04;93487.25;5045616;28;20037;-78
2023/08/03 11:09:29;;;;;;;12.77;7.72;;;;;;;33.42;33.30;93492.25;5045590;28;20076;-77
2023/08/03 11:11:57;;;;;;;14.43;9.40;;;;;;;33.41;34.31;93485.19;5045693;28;20115;-78
2023/08/03 11:14:23;;;;;;;14.27;8.27;;;;;;;33.40;34.16;93489.19;5045670;28;20029;-79
2023/08/03 11:16:49;;;;;;;13.15;8.55;;;;;;;33.31;34.13;93488.00;5045568;28;20028;-77
2023/08/03 11:19:14;;;;;;;10.85;8.27;;;;;;;33.22;33.98;93485.31;5045087;28;20049;-78
2023/08/03 11:21:43;;;;;;;13.15;8.73;;;;;;;33.18;33.51;93484.72;5044123;28;20025;-78
2023/08/03 11:24:10;;;;;;;16.23;8.68;;;;;;;33.23;33.85;93484.06;5045185;28;20017;-79
2023/08/03 11:26:35;;;;;;;16.10;7.70;;;;;;;33.41;34.33;93480.44;5045301;28;20323;-77
2023/08/03 11:29:03;;;;;;;12.93;7.85;;;;;;;33.55;32.08;93478.97;5045360;28;20040;-79
2023/08/03 11:31:28;;;;;;;10.73;7.40;;;;;;;33.58;32.52;93475.25;5045411;28;20023;-79
2023/08/03 11:33:55;;;;;;;14.60;8.35;;;;;;;33.61;31.65;93474.34;5044071;28;20045;-79
2023/08/03 11:36:22;;;;;;;11.30;7.32;;;;;;;33.77;31.83;93464.88;5045208;28;20357;-79
2023/08/03 11:38:50;;;;;;;10.48;6.82;;;;;;;33.95;30.16;93475.00;5045099;28;20219;-79
2023/08/03 11:41:18;;;;;;;14.30;6.55;;;;;;;34.06;30.38;93469.69;5045288;28;20033;-79
2023/08/03 11:43:45;;;;;;;16.25;6.72;;;;;;;34.19;30.10;93471.44;5045175;28;20032;-79
2023/08/03 11:46:11;;;;;;;9.68;6.93;;;;;;;34.25;29.95;93470.28;5044757;28;20403;-78
2023/08/03 11:48:36;;;;;;;10.48;6.78;;;;;;;34.26;28.91;93460.00;5045065;28;20029;-77